KMIA/MIA METAR and TAF weather

Enter ICAO airport designator
Station Type Date Time Source
KMIA METAR 2019/10/14 05:53 UTC NOAA

KMIA 140553Z 09005KT 10SM FEW025 FEW039 27/21 A3002 RMK AO2 SLP166 60000 T02670211 10278 20267 56004 $


Station Type Date Time Source
KMIA Decoded METAR 2019/10/14 05:53 UTC NOAA

MIAMI INTERNATIONAL AIRPORT , FL, United States (KMIA) 25-47N 080-19W 8M
Oct 14, 2019 - 01:53 AM EDT / 2019.10.14 0553 UTC
Wind: from the E (090 degrees) at 6 MPH (5 KT):0
Visibility: 10 mile(s):0
Sky conditions: mostly clear
Temperature: 80.1 F (26.7 C)
Dew Point: 70.0 F (21.1 C)
Relative Humidity: 71%
Pressure (altimeter): 30.02 in. Hg (1016 hPa)
Pressure tendency: 0.01 inches (0.4 hPa) lower than three hours ago
ob: KMIA 140553Z 09005KT 10SM FEW025 FEW039 27/21 A3002 RMK AO2 SLP166 60000 T02670211 10278 20267 56004
cycle: 6

Station Type Date Time Source
KMIA TAF 2019/10/14 06:24 UTC NOAA

TAF KMIA 140522Z 1406/1512 VRB05KT P6SM FEW030 SCT060 SCT250
FM141500 11011KT P6SM SCT025 BKN050
FM150000 08006KT P6SM FEW030 SCT060

Example: see airport list